Time;durP1;ratioP1;P1;durP2;ratioP2;P2;SDS_P1;SDS_P2;PMS_P1;PMS_P2;Temp;Humidity;BMP_temperature;BMP_pressure;BME280_temperature;BME280_humidity;BME280_pressure;Samples;Min_cycle;Max_cycle;Signal;HPM_P1;HPM_P2
2022/01/26 00:53:04;;;;;;;87.72;27.58;;;2.40;99.90;;;;;;4876930;29;20075;-95
2022/01/26 00:55:30;;;;;;;96.57;30.73;;;2.40;99.90;;;;;;4812578;29;20099;-96
2022/01/26 00:57:56;;;;;;;96.35;30.98;;;2.30;99.90;;;;;;4829616;29;20163;-95
2022/01/26 01:30:41;;;;;;;92.05;29.50;;;2.40;99.90;;;;;;4845325;29;20110;-96
2022/01/26 01:33:09;;;;;;;87.32;29.33;;;2.40;99.90;;;;;;4829691;29;20057;-95
2022/01/26 01:43:23;;;;;;;99.57;31.70;;;2.50;99.90;;;;;;4844903;29;20045;-95
2022/01/26 01:59:33;;;;;;;93.28;31.88;;;2.40;99.90;;;;;;4865179;29;20064;-95
2022/01/26 02:05:42;;;;;;;99.65;33.05;;;2.40;99.90;;;;;;4844086;29;20041;-93
2022/01/26 02:08:10;;;;;;;93.10;30.42;;;2.80;99.90;;;;;;4828379;29;20057;-93
2022/01/26 02:10:37;;;;;;;102.65;32.78;;;2.40;99.90;;;;;;4847311;29;20057;-95
2022/01/26 03:02:05;;;;;;;121.22;33.50;;;2.50;99.90;;;;;;4855849;29;20458;-92
2022/01/26 03:04:45;;;;;;;104.32;32.45;;;2.20;99.90;;;;;;4813465;29;20065;-93
2022/01/26 03:08:09;;;;;;;110.25;32.92;;;2.20;99.90;;;;;;4798654;29;20149;-93
2022/01/26 03:10:45;;;;;;;111.95;33.72;;;2.20;99.90;;;;;;4812879;29;20057;-93
2022/01/26 03:13:43;;;;;;;107.55;31.75;;;2.00;99.90;;;;;;4798308;29;20084;-93
2022/01/26 03:20:43;;;;;;;104.38;31.88;;;2.10;99.90;;;;;;4829117;29;20450;-93
2022/01/26 03:35:18;;;;;;;107.93;31.05;;;2.20;99.90;;;;;;4737246;30;20036;-93
2022/01/26 03:38:27;;;;;;;109.55;32.90;;;2.00;99.90;;;;;;4753104;30;20053;-93
2022/01/26 03:44:48;;;;;;;117.82;34.88;;;2.10;99.90;;;;;;4734886;30;20065;-93
2022/01/26 03:47:35;;;;;;;111.18;31.98;;;2.10;99.90;;;;;;4720267;30;20198;-93
2022/01/26 05:09:34;;;;;;;95.60;26.73;;;2.20;99.90;;;;;;4852957;29;20141;-94
2022/01/26 05:12:02;;;;;;;91.22;26.20;;;2.20;99.90;;;;;;4844959;29;20061;-93
2022/01/26 05:14:33;;;;;;;88.30;26.67;;;2.20;99.90;;;;;;4829408;29;20114;-93
2022/01/26 05:20:41;;;;;;;87.80;26.52;;;2.20;99.90;;;;;;4844849;29;20049;-94
2022/01/26 05:23:09;;;;;;;98.32;26.35;;;2.20;99.90;;;;;;4829110;29;20062;-94
2022/01/26 05:25:35;;;;;;;83.25;25.55;;;2.20;99.90;;;;;;4843341;29;20588;-93
2022/01/26 05:28:06;;;;;;;83.10;25.38;;;2.30;99.90;;;;;;4813440;29;20061;-93
2022/01/26 05:30:32;;;;;;;71.63;21.60;;;2.40;99.90;;;;;;4829123;29;20062;-95
2022/01/26 05:32:58;;;;;;;109.22;24.67;;;2.20;99.90;;;;;;4828659;29;20057;-93
2022/01/26 05:35:24;;;;;;;77.10;23.08;;;2.30;99.90;;;;;;4829045;29;20066;-93
2022/01/26 05:37:52;;;;;;;79.22;24.50;;;2.00;99.90;;;;;;4829597;29;20058;-94
2022/01/26 05:40:24;;;;;;;79.07;23.05;;;2.20;99.90;;;;;;4828930;29;20070;-93
2022/01/26 05:42:50;;;;;;;83.10;25.35;;;2.20;99.90;;;;;;4828607;29;20058;-94
2022/01/26 05:45:34;;;;;;;80.80;23.73;;;2.30;99.90;;;;;;4829107;29;20131;-93
2022/01/26 05:48:44;;;;;;;73.78;22.65;;;2.20;99.90;;;;;;4828330;29;20065;-93
2022/01/26 05:51:11;;;;;;;72.43;22.20;;;2.20;99.90;;;;;;4828901;29;20416;-93
2022/01/26 05:53:39;;;;;;;72.35;22.27;;;2.20;99.90;;;;;;4813939;29;20151;-93
2022/01/26 05:56:06;;;;;;;73.03;23.20;;;2.20;99.90;;;;;;4828913;29;20470;-93
2022/01/26 05:58:31;;;;;;;69.22;21.60;;;2.20;99.90;;;;;;4827945;29;20157;-94
2022/01/26 06:01:00;;;;;;;68.88;21.33;;;2.50;99.90;;;;;;4844420;29;20133;-94
2022/01/26 06:07:19;;;;;;;80.13;22.45;;;1.90;99.90;;;;;;4844198;29;20516;-93
2022/01/26 06:09:45;;;;;;;80.15;22.95;;;2.20;99.90;;;;;;4812666;29;20131;-94
2022/01/26 06:12:11;;;;;;;70.97;21.75;;;2.20;99.90;;;;;;4829071;29;20058;-93
2022/01/26 06:14:42;;;;;;;66.40;20.38;;;2.20;99.90;;;;;;4812730;29;20065;-93
2022/01/26 06:20:49;;;;;;;63.25;20.88;;;2.20;99.90;;;;;;4844343;29;20522;-94
2022/01/26 06:23:33;;;;;;;71.63;21.55;;;2.20;99.90;;;;;;4813153;29;20134;-93
2022/01/26 06:25:59;;;;;;;66.55;20.05;;;2.60;99.90;;;;;;4828294;29;20145;-93
2022/01/26 06:28:27;;;;;;;65.95;20.15;;;2.20;99.90;;;;;;4813196;29;20501;-94
2022/01/26 06:31:16;;;;;;;69.03;21.20;;;2.20;99.90;;;;;;4812834;29;20476;-92
2022/01/26 06:33:45;;;;;;;67.45;21.20;;;2.20;99.90;;;;;;4814481;29;20061;-94
2022/01/26 06:36:12;;;;;;;70.40;20.15;;;2.60;99.90;;;;;;4828675;29;20049;-93
2022/01/26 06:42:24;;;;;;;67.10;20.38;;;2.20;99.90;;;;;;4828561;29;20105;-93
2022/01/26 06:45:07;;;;;;;65.50;20.52;;;2.30;99.90;;;;;;4812953;29;20053;-93
2022/01/26 06:51:51;;;;;;;63.58;20.15;;;2.20;99.90;;;;;;4843953;29;20064;-92
2022/01/26 06:54:17;;;;;;;;;;;2.20;99.90;;;;;;4827742;29;20076;-93
2022/01/26 07:11:30;;;;;;;75.05;21.02;;;2.30;99.90;;;;;;4843408;29;20049;-93
2022/01/26 07:13:59;;;;;;;66.13;21.35;;;2.30;99.90;;;;;;4827885;29;20050;-93
2022/01/26 07:19:55;;;;;;;74.40;22.77;;;2.30;99.90;;;;;;4843531;29;20042;-93
2022/01/26 07:22:21;;;;;;;70.28;22.88;;;2.30;99.90;;;;;;4828252;29;20065;-94
2022/01/26 07:25:05;;;;;;;67.43;21.65;;;2.30;99.90;;;;;;4828841;29;20058;-92
2022/01/26 07:27:33;;;;;;;71.57;24.73;;;2.30;99.90;;;;;;4813090;29;20054;-94
2022/01/26 07:30:00;;;;;;;71.10;24.80;;;2.30;99.90;;;;;;4827929;29;20156;-93
2022/01/26 07:36:35;;;;;;;74.00;24.20;;;2.40;99.90;;;;;;4845618;29;20034;-93
2022/01/26 07:39:07;;;;;;;73.07;24.33;;;2.40;99.90;;;;;;4812994;29;20058;-92
2022/01/26 07:41:34;;;;;;;80.30;28.23;;;2.40;99.90;;;;;;4828686;29;20386;-92
2022/01/26 07:52:04;;;;;;;84.87;28.83;;;2.40;99.90;;;;;;4847235;29;20114;-93
2022/01/26 07:54:32;;;;;;;79.80;26.40;;;2.50;99.90;;;;;;4822835;29;20091;-92
2022/01/26 07:57:00;;;;;;;83.57;28.25;;;2.50;99.90;;;;;;4833236;29;20114;-92
2022/01/26 07:59:27;;;;;;;89.47;30.05;;;2.50;99.90;;;;;;4832157;29;20062;-94
2022/01/26 08:06:27;;;;;;;102.15;33.58;;;2.50;99.90;;;;;;4828183;29;20045;-93
2022/01/26 08:08:55;;;;;;;92.68;31.95;;;2.60;99.90;;;;;;4810504;29;20051;-94
2022/01/26 08:11:21;;;;;;;100.90;33.17;;;2.80;99.90;;;;;;4811231;29;20054;-93
2022/01/26 08:13:47;;;;;;;100.68;35.05;;;3.00;99.90;;;;;;4812021;29;20065;-93
2022/01/26 08:16:13;;;;;;;108.25;38.80;;;2.60;99.90;;;;;;4796826;29;20134;-94
2022/01/26 08:18:39;;;;;;;110.15;38.85;;;2.90;99.90;;;;;;4811046;29;20062;-93
2022/01/26 08:21:06;;;;;;;115.78;40.17;;;2.60;99.90;;;;;;4813092;29;20069;-93
2022/01/26 08:23:37;;;;;;;122.05;43.60;;;2.80;99.90;;;;;;4794683;29;20409;-93
2022/01/26 08:26:03;;;;;;;138.73;45.67;;;2.80;99.90;;;;;;4790521;29;20058;-96
2022/01/26 08:28:51;;;;;;;136.60;46.03;;;2.70;99.90;;;;;;4799331;29;20062;-94
2022/01/26 08:31:17;;;;;;;129.60;43.78;;;2.90;99.90;;;;;;4798689;29;20093;-93
2022/01/26 08:33:42;;;;;;;138.25;45.67;;;2.80;99.90;;;;;;4812417;29;20089;-93
2022/01/26 08:36:45;;;;;;;142.95;48.08;;;2.80;99.90;;;;;;4812670;29;20055;-94
2022/01/26 08:39:11;;;;;;;138.93;48.03;;;2.80;99.90;;;;;;4812188;29;20055;-92
2022/01/26 08:41:37;;;;;;;134.75;47.47;;;3.10;99.90;;;;;;4798495;29;20061;-93
2022/01/26 08:44:12;;;;;;;142.60;49.25;;;3.20;99.90;;;;;;4814062;29;20061;-94
2022/01/26 08:46:38;;;;;;;143.98;47.90;;;2.90;99.90;;;;;;4797367;29;20069;-93
2022/01/26 08:49:05;;;;;;;137.50;49.92;;;2.90;99.90;;;;;;4798528;29;20058;-94
2022/01/26 08:51:31;;;;;;;147.25;50.97;;;3.00;99.90;;;;;;4798960;29;20059;-94
2022/01/26 08:58:48;;;;;;;146.82;50.95;;;3.00;99.90;;;;;;4849208;29;20464;-94
2022/01/26 09:01:13;;;;;;;144.32;51.60;;;3.00;99.90;;;;;;4829561;29;20058;-94
2022/01/26 09:04:00;;;;;;;137.90;47.05;;;3.20;99.90;;;;;;4831039;29;20114;-94
2022/01/26 09:06:29;;;;;;;143.52;50.75;;;3.10;99.90;;;;;;4831274;29;20054;-94
2022/01/26 09:09:02;;;;;;;144.55;48.75;;;3.00;99.90;;;;;;4814632;29;20088;-94
2022/01/26 09:11:31;;;;;;;146.00;51.20;;;3.20;99.90;;;;;;4830897;29;20054;-93
2022/01/26 09:13:58;;;;;;;147.32;50.78;;;3.30;99.90;;;;;;4845945;29;20135;-92
2022/01/26 09:20:14;;;;;;;137.68;46.58;;;3.10;99.90;;;;;;4845831;29;20040;-94
2022/01/26 09:22:40;;;;;;;149.65;51.10;;;3.30;99.90;;;;;;4829742;29;20119;-95
2022/01/26 09:25:09;;;;;;;162.90;52.85;;;3.20;99.90;;;;;;4829527;29;20127;-92
2022/01/26 09:27:44;;;;;;;156.90;52.90;;;3.20;99.90;;;;;;4830098;29;20058;-93
2022/01/26 09:30:11;;;;;;;160.52;52.83;;;3.60;99.90;;;;;;4829266;29;20062;-94
2022/01/26 09:32:37;;;;;;;153.88;52.13;;;3.30;99.90;;;;;;4830432;29;20061;-94
2022/01/26 09:35:06;;;;;;;152.13;50.53;;;3.30;99.90;;;;;;4829461;29;20497;-93
2022/01/26 09:37:37;;;;;;;150.30;51.00;;;3.30;99.90;;;;;;4814693;29;20100;-92
2022/01/26 09:40:04;;;;;;;160.88;52.38;;;3.60;99.90;;;;;;4830870;29;20065;-94
2022/01/26 09:43:29;;;;;;;154.27;49.35;;;3.30;99.90;;;;;;4813956;29;20097;-93
2022/01/26 09:45:55;;;;;;;150.93;50.58;;;3.30;99.90;;;;;;4829443;29;20054;-92
2022/01/26 09:48:21;;;;;;;160.48;51.60;;;3.40;99.90;;;;;;4830345;29;20144;-93
2022/01/26 09:50:53;;;;;;;151.23;50.38;;;3.40;99.90;;;;;;4829921;29;20119;-94
2022/01/26 09:53:27;;;;;;;150.35;49.63;;;3.40;99.90;;;;;;4830441;29;20058;-93
2022/01/26 09:55:54;;;;;;;151.18;49.15;;;3.50;99.90;;;;;;4829534;29;20076;-94
2022/01/26 09:58:20;;;;;;;144.15;47.45;;;3.40;99.90;;;;;;4829083;29;20070;-92
2022/01/26 10:01:14;;;;;;;148.00;49.33;;;3.50;99.90;;;;;;4830192;29;20162;-95
2022/01/26 10:03:43;;;;;;;141.65;47.67;;;3.50;99.90;;;;;;4829059;29;20050;-93
2022/01/26 10:06:26;;;;;;;150.05;49.50;;;3.70;99.90;;;;;;4813347;29;20412;-93
2022/01/26 10:10:00;;;;;;;136.95;44.47;;;3.50;99.90;;;;;;4813897;29;20065;-93
2022/01/26 10:20:04;;;;;;;136.50;45.58;;;3.60;99.90;;;;;;4846615;29;20038;-93
2022/01/26 10:22:33;;;;;;;125.00;43.03;;;3.70;99.90;;;;;;4829727;29;20054;-93
2022/01/26 10:25:25;;;;;;;131.80;44.28;;;3.70;99.90;;;;;;4828972;29;20509;-94
2022/01/26 10:27:53;;;;;;;128.10;43.47;;;3.80;99.90;;;;;;4826401;29;20481;-94
2022/01/26 10:30:33;;;;;;;121.63;42.22;;;4.20;99.90;;;;;;4813010;29;20145;-93
2022/01/26 10:36:52;;;;;;;122.90;43.47;;;3.90;99.90;;;;;;4844054;29;20044;-94
2022/01/26 10:39:29;;;;;;;114.30;41.92;;;3.90;99.90;;;;;;4813796;29;20421;-94
2022/01/26 10:42:00;;;;;;;119.63;41.95;;;3.90;99.90;;;;;;4829206;29;20417;-94
2022/01/26 10:44:37;;;;;;;115.32;42.58;;;4.20;99.90;;;;;;4828810;29;20520;-94
2022/01/26 10:47:06;;;;;;;107.63;40.38;;;4.00;99.90;;;;;;4828708;29;20057;-93
2022/01/26 10:52:20;;;;;;;110.50;42.20;;;4.00;99.90;;;;;;4829963;29;20054;-92
2022/01/26 10:54:50;;;;;;;111.75;40.70;;;4.10;99.90;;;;;;4828985;29;20408;-93
2022/01/26 10:57:19;;;;;;;105.07;40.25;;;4.10;99.90;;;;;;4830420;29;20138;-94
2022/01/26 10:59:47;;;;;;;104.28;38.60;;;4.10;99.90;;;;;;4827948;29;20062;-94
2022/01/26 11:02:19;;;;;;;93.25;36.13;;;4.30;99.90;;;;;;4843466;29;20062;-94
2022/01/26 11:04:45;;;;;;;88.38;36.78;;;4.10;99.90;;;;;;4844484;29;20134;-95
2022/01/26 11:07:13;;;;;;;92.93;38.17;;;4.20;99.90;;;;;;4828219;29;20144;-95
2022/01/26 11:09:42;;;;;;;91.95;36.47;;;3.70;99.90;;;;;;4828512;29;20061;-94
2022/01/26 11:12:28;;;;;;;106.00;38.60;;;4.20;99.90;;;;;;4827919;29;20516;-95
2022/01/26 11:15:04;;;;;;;89.35;32.03;;;4.20;99.90;;;;;;4828268;29;20057;-95
2022/01/26 11:17:34;;;;;;;89.70;33.75;;;4.50;99.90;;;;;;4830351;29;20050;-94
2022/01/26 11:20:03;;;;;;;92.97;37.97;;;4.30;99.90;;;;;;4830811;29;20054;-93
2022/01/26 11:22:32;;;;;;;92.70;36.38;;;4.30;99.90;;;;;;4830772;29;20064;-94
2022/01/26 11:25:11;;;;;;;96.55;37.35;;;4.50;99.90;;;;;;4818998;29;20137;-94
2022/01/26 11:27:47;;;;;;;90.20;35.58;;;4.30;99.90;;;;;;4831249;29;20050;-93
2022/01/26 11:30:27;;;;;;;95.43;34.13;;;4.40;99.90;;;;;;4832533;29;20054;-94
2022/01/26 11:33:03;;;;;;;87.43;34.67;;;4.30;99.90;;;;;;4831821;29;20053;-94
2022/01/26 11:35:35;;;;;;;84.28;32.92;;;4.60;99.90;;;;;;4832889;29;20060;-95
2022/01/26 11:38:28;;;;;;;93.22;35.47;;;4.30;99.90;;;;;;4834350;29;20050;-95
2022/01/26 11:46:40;;;;;;;84.07;32.15;;;4.30;99.90;;;;;;4777766;30;20059;-96
2022/01/26 11:49:10;;;;;;;82.72;32.72;;;4.30;99.90;;;;;;4783527;30;20486;-96
2022/01/26 11:51:44;;;;;;;85.13;34.87;;;4.30;99.90;;;;;;4782880;30;20145;-94
2022/01/26 11:54:25;;;;;;;79.05;33.50;;;4.30;99.90;;;;;;4769695;30;20059;-94
2022/01/26 11:57:15;;;;;;;78.23;32.07;;;4.40;99.90;;;;;;4785712;30;20061;-94
2022/01/26 11:59:50;;;;;;;83.13;32.47;;;4.40;99.90;;;;;;4784203;30;20398;-94
2022/01/26 12:02:32;;;;;;;79.95;32.15;;;4.30;99.90;;;;;;4780451;30;20320;-93
2022/01/26 12:05:06;;;;;;;80.20;33.08;;;4.40;99.90;;;;;;4771909;30;20070;-94
2022/01/26 12:07:32;;;;;;;88.10;32.58;;;4.40;99.90;;;;;;4779112;30;20075;-95
2022/01/26 12:10:03;;;;;;;83.50;33.70;;;4.60;99.90;;;;;;4774133;30;20079;-93
2022/01/26 12:12:29;;;;;;;79.90;33.10;;;4.60;99.90;;;;;;4758764;30;20059;-94
2022/01/26 12:15:11;;;;;;;81.28;34.03;;;4.50;99.90;;;;;;4773301;30;20051;-94
2022/01/26 12:18:14;;;;;;;78.22;33.45;;;4.50;99.90;;;;;;4773539;30;20524;-94
2022/01/26 12:37:12;;;;;;;90.18;35.55;;;4.40;99.90;;;;;;4832299;29;20089;-94
2022/01/26 12:45:15;;;;;;;93.82;36.22;;;4.20;99.90;;;;;;4836624;29;20466;-94
2022/01/26 12:47:45;;;;;;;86.20;34.47;;;4.30;99.90;;;;;;4823171;29;20042;-94
2022/01/26 12:50:18;;;;;;;87.78;36.30;;;4.40;99.90;;;;;;4816947;29;20064;-95
2022/01/26 12:52:48;;;;;;;98.78;36.28;;;4.40;99.90;;;;;;4799039;29;20153;-94
2022/01/26 12:55:35;;;;;;;91.25;31.30;;;4.60;99.90;;;;;;4787081;29;20059;-93
2022/01/26 12:58:02;;;;;;;95.22;35.25;;;4.40;99.90;;;;;;4782232;29;20066;-93
2022/01/26 13:00:45;;;;;;;101.85;34.28;;;4.50;99.90;;;;;;4780686;29;20065;-94
2022/01/26 13:03:16;;;;;;;89.60;32.90;;;4.40;99.90;;;;;;4791620;29;20383;-92
2022/01/26 13:05:42;;;;;;;80.68;31.13;;;4.70;99.90;;;;;;4791984;29;20061;-92
2022/01/26 13:08:12;;;;;;;89.03;32.17;;;4.30;99.90;;;;;;4805756;29;20559;-94
2022/01/26 13:10:41;;;;;;;97.28;37.25;;;4.20;99.90;;;;;;4776775;29;20065;-93
2022/01/26 13:13:11;;;;;;;93.00;34.33;;;4.10;99.90;;;;;;4792163;29;20051;-93
2022/01/26 13:16:05;;;;;;;83.25;33.20;;;4.30;99.90;;;;;;4788746;29;20058;-95
2022/01/26 13:21:33;;;;;;;103.53;35.97;;;4.30;99.90;;;;;;4788364;29;20077;-93
2022/01/26 13:29:38;;;;;;;84.15;30.73;;;4.40;99.90;;;;;;4813557;29;20077;-93
2022/01/26 13:37:58;;;;;;;89.10;32.75;;;4.30;99.90;;;;;;4827756;29;20057;-92
2022/01/26 13:53:01;;;;;;;98.53;34.60;;;4.20;99.90;;;;;;4827336;29;20058;-90
2022/01/26 13:55:44;;;;;;;91.95;34.58;;;4.40;99.90;;;;;;4826758;29;20152;-92
2022/01/26 13:58:29;;;;;;;82.97;31.20;;;4.60;99.90;;;;;;4828284;29;20481;-93
2022/01/26 14:01:05;;;;;;;90.28;34.20;;;4.30;99.90;;;;;;4828830;29;20066;-93
2022/01/26 14:03:33;;;;;;;85.03;33.88;;;4.40;99.90;;;;;;4830069;29;20064;-95
2022/01/26 14:05:59;;;;;;;82.50;31.05;;;4.50;99.90;;;;;;4812452;29;20054;-93
2022/01/26 14:08:25;;;;;;;71.45;30.42;;;4.50;99.90;;;;;;4826338;29;20058;-93
2022/01/26 14:10:51;;;;;;;92.38;33.72;;;4.60;99.90;;;;;;4827081;29;20136;-94
2022/01/26 14:13:26;;;;;;;80.97;34.42;;;4.50;99.90;;;;;;4827910;29;20149;-94
2022/01/26 14:15:55;;;;;;;95.30;33.65;;;4.50;99.90;;;;;;4814050;29;20058;-94
2022/01/26 14:26:11;;;;;;;68.32;26.30;;;4.90;99.90;;;;;;4829825;29;20058;-93
2022/01/26 14:28:37;;;;;;;81.40;31.05;;;5.00;99.90;;;;;;4831502;29;20054;-92
2022/01/26 14:33:57;;;;;;;74.72;28.83;;;4.80;99.90;;;;;;4829989;29;20054;-93
2022/01/26 15:30:05;;;;;;;76.05;27.67;;;5.10;99.90;;;;;;4835605;29;20528;-95
2022/01/26 16:08:09;;;;;;;63.78;25.13;;;4.90;99.90;;;;;;4797194;29;19932;-95
2022/01/26 16:21:22;;;;;;;63.97;25.73;;;4.90;99.90;;;;;;4801162;29;20073;-95
2022/01/26 16:27:20;;;;;;;68.13;28.42;;;5.30;99.90;;;;;;4800241;29;20501;-96
2022/01/26 16:35:32;;;;;;;72.72;29.45;;;4.70;99.90;;;;;;4837884;29;20048;-94
2022/01/26 18:39:38;;;;;;;49.60;22.98;;;5.50;99.90;;;;;;4829663;29;19931;-95
2022/01/26 18:50:41;;;;;;;53.75;24.30;;;5.60;99.90;;;;;;4846325;29;20072;-93
2022/01/26 18:53:08;;;;;;;55.88;25.15;;;5.30;99.90;;;;;;4830731;29;20592;-95
2022/01/26 18:55:34;;;;;;;61.35;26.27;;;5.30;99.90;;;;;;4813861;29;20058;-95
2022/01/26 18:58:25;;;;;;;60.22;27.17;;;5.40;99.90;;;;;;4834360;29;20131;-95
2022/01/26 19:00:53;;;;;;;58.43;25.07;;;5.30;99.90;;;;;;4830868;29;20053;-94
2022/01/26 19:07:05;;;;;;;56.47;27.63;;;5.30;99.90;;;;;;4850069;29;20037;-95
2022/01/26 19:09:41;;;;;;;66.63;27.88;;;5.30;99.90;;;;;;4816588;29;20203;-94
2022/01/26 19:12:11;;;;;;;67.28;29.58;;;5.30;99.90;;;;;;4818222;29;20508;-95
2022/01/26 19:14:44;;;;;;;60.22;27.70;;;5.20;99.90;;;;;;4829598;29;20519;-94
2022/01/26 19:19:56;;;;;;;62.22;30.27;;;5.50;99.90;;;;;;4830426;29;20122;-94
2022/01/26 19:25:26;;;;;;;60.45;27.38;;;5.20;99.90;;;;;;4832839;29;20498;-96
2022/01/26 19:40:24;;;;;;;63.78;27.65;;;5.40;99.90;;;;;;4829495;29;20057;-95
2022/01/26 19:50:53;;;;;;;64.88;29.35;;;5.30;99.90;;;;;;4834305;29;20086;-95
2022/01/26 19:53:22;;;;;;;61.50;28.83;;;5.10;99.90;;;;;;4849454;29;20065;-95
2022/01/26 19:55:53;;;;;;;63.50;28.00;;;5.20;99.90;;;;;;4820026;29;20058;-95
2022/01/26 19:58:19;;;;;;;59.08;28.85;;;5.50;99.90;;;;;;4817236;29;20064;-95
2022/01/26 20:00:48;;;;;;;61.92;30.52;;;5.30;99.90;;;;;;4817323;29;20132;-94
2022/01/26 20:07:06;;;;;;;63.60;28.83;;;5.10;99.90;;;;;;4849813;29;20473;-95
2022/01/26 20:09:40;;;;;;;71.97;30.95;;;5.40;99.90;;;;;;4832694;29;20058;-95
2022/01/26 20:15:05;;;;;;;69.53;31.20;;;5.30;99.90;;;;;;4833145;29;20117;-95
2022/01/26 20:17:32;;;;;;;65.07;30.88;;;5.10;99.90;;;;;;4817539;29;20057;-95
2022/01/26 20:20:05;;;;;;;70.43;30.92;;;5.20;99.90;;;;;;4816910;29;20111;-95
2022/01/26 20:22:31;;;;;;;67.78;32.03;;;5.20;99.90;;;;;;4817141;29;20054;-94
2022/01/26 20:24:59;;;;;;;71.10;32.35;;;5.40;99.90;;;;;;4816109;29;20148;-94
2022/01/26 20:27:28;;;;;;;63.28;31.10;;;5.20;99.90;;;;;;4816259;29;20060;-95
2022/01/26 20:30:02;;;;;;;68.75;31.63;;;5.20;99.90;;;;;;4817069;29;20065;-94
2022/01/26 20:32:31;;;;;;;73.55;32.78;;;5.20;99.90;;;;;;4817727;29;20068;-95
2022/01/26 20:34:59;;;;;;;71.13;32.13;;;5.20;99.90;;;;;;4819725;29;20417;-95
2022/01/26 20:37:25;;;;;;;61.60;31.02;;;5.20;99.90;;;;;;4817664;29;20062;-95
2022/01/26 20:39:52;;;;;;;68.38;30.73;;;5.20;99.90;;;;;;4817299;29;20053;-95
2022/01/26 20:42:21;;;;;;;62.53;30.40;;;5.40;99.90;;;;;;4817133;29;20119;-95
2022/01/26 20:44:50;;;;;;;56.22;29.30;;;5.20;99.90;;;;;;4817071;29;20057;-94
2022/01/26 20:47:27;;;;;;;63.35;29.58;;;5.20;99.90;;;;;;4816603;29;20060;-95
2022/01/26 20:53:47;;;;;;;62.10;28.90;;;5.20;99.90;;;;;;4849060;29;20133;-95
2022/01/26 20:56:16;;;;;;;62.95;30.58;;;5.20;99.90;;;;;;4817623;29;20861;-94
2022/01/26 20:58:46;;;;;;;61.63;29.52;;;5.20;99.90;;;;;;4816121;29;20057;-95
2022/01/26 21:01:12;;;;;;;65.82;29.75;;;5.20;99.90;;;;;;4832842;29;20105;-95
2022/01/26 21:04:06;;;;;;;63.00;29.90;;;5.20;99.90;;;;;;4817229;29;20409;-95
2022/01/26 21:06:34;;;;;;;57.35;27.13;;;5.20;99.90;;;;;;4833800;29;20050;-95
2022/01/26 21:09:06;;;;;;;61.38;29.23;;;5.20;99.90;;;;;;4820277;29;20069;-95
2022/01/26 21:11:31;;;;;;;59.88;27.70;;;5.40;99.90;;;;;;4816658;29;20058;-95
2022/01/26 21:14:00;;;;;;;55.97;25.95;;;5.40;99.90;;;;;;4833513;29;20061;-93
2022/01/26 21:16:37;;;;;;;57.60;27.30;;;5.20;99.90;;;;;;4816245;29;20064;-94
2022/01/26 21:22:47;;;;;;;51.53;24.38;;;5.20;99.90;;;;;;4845693;29;20060;-95
2022/01/26 21:25:23;;;;;;;54.00;26.00;;;5.20;99.90;;;;;;4815018;29;20551;-95
2022/01/26 21:27:50;;;;;;;54.15;26.40;;;5.20;99.90;;;;;;4830403;29;20187;-94
2022/01/26 21:30:16;;;;;;;52.65;26.17;;;5.30;99.90;;;;;;4815605;29;20085;-95
2022/01/26 21:32:42;;;;;;;55.88;25.77;;;5.30;99.90;;;;;;4815512;29;20097;-94
2022/01/26 21:35:13;;;;;;;55.33;26.67;;;5.20;99.90;;;;;;4815473;29;20070;-93
2022/01/26 21:37:39;;;;;;;54.28;25.50;;;5.50;99.90;;;;;;4830888;29;20065;-94
2022/01/26 21:40:09;;;;;;;49.85;25.27;;;5.30;99.90;;;;;;4830749;29;20058;-93
2022/01/26 21:42:38;;;;;;;55.17;25.27;;;5.30;99.90;;;;;;4830905;29;20058;-93
2022/01/26 21:45:07;;;;;;;49.20;25.02;;;5.50;99.90;;;;;;4815228;29;20062;-94
2022/01/26 21:47:35;;;;;;;51.72;24.40;;;5.40;99.90;;;;;;4814262;29;20054;-94
2022/01/26 21:50:01;;;;;;;51.03;24.92;;;5.30;99.90;;;;;;4814485;29;20157;-94
2022/01/26 21:52:29;;;;;;;50.90;24.48;;;5.50;99.90;;;;;;4830051;29;20057;-95
2022/01/26 21:54:59;;;;;;;46.78;22.85;;;5.40;99.90;;;;;;4801765;29;20058;-95
2022/01/26 21:57:30;;;;;;;44.92;22.52;;;5.40;99.90;;;;;;4846420;29;20053;-95
2022/01/26 21:59:57;;;;;;;44.70;21.92;;;5.40;99.90;;;;;;4814110;29;20081;-94
2022/01/26 22:02:25;;;;;;;51.88;25.90;;;5.30;99.90;;;;;;4829782;29;20066;-94
2022/01/26 22:04:51;;;;;;;44.63;22.02;;;5.30;99.90;;;;;;4813705;29;20054;-96
2022/01/26 22:07:17;;;;;;;48.03;23.33;;;5.50;99.90;;;;;;4829908;29;20054;-93
2022/01/26 22:09:45;;;;;;;48.97;24.13;;;5.40;99.90;;;;;;4814391;29;20054;-94
2022/01/26 22:12:11;;;;;;;46.28;22.40;;;5.40;99.90;;;;;;4815411;29;20062;-94
2022/01/26 22:14:40;;;;;;;47.22;23.83;;;5.40;99.90;;;;;;4814023;29;20062;-94
2022/01/26 22:17:05;;;;;;;50.90;24.45;;;5.40;99.90;;;;;;4814595;29;20099;-95
2022/01/26 22:19:31;;;;;;;48.80;22.80;;;5.20;99.90;;;;;;4815144;29;20088;-94
2022/01/26 22:21:58;;;;;;;47.35;23.45;;;5.40;99.90;;;;;;4828876;29;20061;-94
2022/01/26 22:24:30;;;;;;;53.28;24.60;;;5.50;99.90;;;;;;4814868;29;20054;-95
2022/01/26 22:26:56;;;;;;;45.33;23.38;;;5.50;99.90;;;;;;4812927;29;20137;-94
2022/01/26 22:29:27;;;;;;;50.35;23.63;;;5.30;99.90;;;;;;4829823;29;20066;-93
2022/01/26 22:31:56;;;;;;;44.75;22.90;;;5.30;99.90;;;;;;4812553;29;20061;-93
2022/01/26 22:34:35;;;;;;;53.50;25.08;;;5.30;99.90;;;;;;4813478;29;20097;-95
2022/01/26 22:37:07;;;;;;;49.50;22.85;;;5.30;99.90;;;;;;4813625;29;20050;-94
2022/01/26 22:39:34;;;;;;;55.70;25.48;;;5.40;99.90;;;;;;4828571;29;20060;-93
2022/01/26 22:42:00;;;;;;;48.92;24.70;;;5.30;99.90;;;;;;4813013;29;20136;-94
2022/01/26 22:44:25;;;;;;;53.58;26.25;;;5.40;99.90;;;;;;4813252;29;20058;-94
2022/01/26 22:46:51;;;;;;;48.08;21.30;;;5.20;99.90;;;;;;4813940;29;20125;-94
2022/01/26 22:49:17;;;;;;;47.97;22.80;;;5.20;99.90;;;;;;4828131;29;20057;-95
2022/01/26 22:51:42;;;;;;;48.13;24.88;;;5.30;99.90;;;;;;4813204;29;20085;-94
2022/01/26 22:54:08;;;;;;;50.90;23.35;;;5.30;99.90;;;;;;4828630;29;20062;-93
2022/01/26 22:56:37;;;;;;;48.42;22.65;;;5.20;99.90;;;;;;4828704;29;20058;-94
2022/01/26 22:59:06;;;;;;;54.45;25.42;;;5.20;99.90;;;;;;4812605;29;20062;-94
2022/01/26 23:07:44;;;;;;;46.13;21.27;;;5.30;99.90;;;;;;4844164;29;20037;-93
2022/01/26 23:10:10;;;;;;;49.50;23.80;;;5.60;99.90;;;;;;4813562;29;20302;-95
2022/01/26 23:12:36;;;;;;;48.10;23.45;;;5.30;99.90;;;;;;4812184;29;20061;-94
2022/01/26 23:15:02;;;;;;;47.00;23.83;;;5.30;99.90;;;;;;4813246;29;20136;-94
2022/01/26 23:17:31;;;;;;;49.60;24.88;;;5.30;99.90;;;;;;4812609;29;20058;-93
2022/01/26 23:20:36;;;;;;;52.45;25.33;;;5.30;99.90;;;;;;4814736;29;20144;-92
2022/01/26 23:23:06;;;;;;;52.95;22.48;;;5.30;99.90;;;;;;4815802;29;20140;-92
2022/01/26 23:30:58;;;;;;;47.38;24.50;;;5.40;99.90;;;;;;4758643;30;20098;-94
2022/01/26 23:40:23;;;;;;;49.60;20.80;;;5.30;99.90;;;;;;4759287;30;20063;-93
